Aérodrome :
LOGIN :

S'inscrire | Disclaimer

   EN    FR    IT 

 










Légende :    VFR   VFR Marginal   IFR   IFR Intensif   IFR Très Intensif
Visi : 
Plafond : 
>= 8 km
>= 3000ft
5 à 8 km
1000 à 3000 ft
1500m à 5 km
500 à 1000 ft
800 à 1500m
200 à 500 ft
< 800m
< 200 ft
Symboles :   Orages  Brouillard  Fortes neiges  Fortes précipitations  Vent > 20 kt
SIGMETs :   Divers  Orages  Givrage  Turbulence  Onde Orograph.  Cendres Volcan.







- Altitude de l'aérodrome : 464 ft
- Code IATA : EVX
- Voir les cartes d'approche


LFOE - Evreux

DERNIER METAR :
  • 151530Z AUTO 32009KT 290V360 9999 -RA BKN011 BKN017 OVC023 04/03 Q0999

METARs EXPIRÉS :
  • 151500Z AUTO 33012KT 300V360 7000 -RA BKN012 BKN019 OVC024 04/03 Q0998
  • 151430Z AUTO 33012KT 300V010 9999 -RA BKN012 BKN021 OVC027 05/03 Q0997
  • 151400Z AUTO 33010KT 290V360 9999 BKN011 OVC020 05/04 Q0996
  • 151330Z AUTO 30011KT 260V330 9999 -RA FEW010/// BKN014/// BKN021/// ///TCU 05/04 Q0996
  • 151300Z AUTO 28008KT 9999 -RA BKN016 BKN021 BKN026 06/04 Q0995

TAF TAF LFOE
Valide du 15 à 15h jusqu'au 16 à 15h UTC


151400Z 1515/1615 32012G22KT 9999 BKN014
TEMPO 1515/1516 29020G30KT 2000 SHRAGS SCT008 BKN020CB
BECMG 1516/1518 SCT020
TEMPO 1516/1606 4000 SHRA SCT006 BKN020TCU
PROB30
TEMPO 1521/1606 4000 -SHRASN BKN010TCU
BECMG 1610/1612 SCT030
Pas de NOTAMs connus pour ce terrain.



MET'MAP, la Météo Aéronautique d'un coup d'oeil ! - Copyright ORBIFLY Décembre 2007 - Disclaimer

ORBIFLY MET'MAP TEAM :

Programmation & Développement : Alexandra Zaïnal
Conception & Développement : Baudouin d'Aumeries
Co-Programmation & Développement : Marc-Olivier Méhu
Soutien technique & logistique : Manuel Goepfert

Contact : metmap@orbifly.com




SOURCES & CREDITS :

   NOAA